WetterOnline ( https://www.wetteronline.de )

Wetter aktuell Harzgerode

Aktuelles Wetter: Harzgerode (405m)

6-stündlich | Neueste Meldungen
Ortszeit Temperatur Wetter
Sa, 24.10. 2:00 10.2° C wolkenlos
Fr, 23.10. 20:00 10.6° C Sprühregen
Fr, 23.10. 14:00 13.8° C leichter Regen
Fr, 23.10. 8:00 12.1° C bewölkt
Fr, 23.10. 2:00 11.9° C leicht bewölkt
Do, 22.10. 20:00 14.2° C bedeckt
Do, 22.10. 14:00 17.3° C leicht bewölkt
Do, 22.10. 8:00 12.4° C bewölkt
Ortszeit Temperatur Wetter
Sa, 24.10. 6:00 10.3° C leicht bewölkt
Sa, 24.10. 5:40 10.3° C leicht bewölkt
Sa, 24.10. 5:30 10.2° C wolkenlos
Sa, 24.10. 5:20 10.2° C wolkenlos
Sa, 24.10. 5:10 10.3° C fast wolkenlos
Sa, 24.10. 5:00 10.4° C wolkenlos
Sa, 24.10. 4:50 10.4° C wolkenlos
Sa, 24.10. 4:30 10.3° C leicht bewölkt
Sa, 24.10. 4:00 10.0° C bedeckt
Sa, 24.10. 3:30 10.3° C wolkig
Sa, 24.10. 3:00 10.3° C leicht bewölkt
Sa, 24.10. 2:30 10.2° C wolkenlos
Ortszeit Relative Feuchte Sichtweite
Sa, 24.10. 2:00 96% 30 km
Fr, 23.10. 20:00 96% 35 km
Fr, 23.10. 14:00 91% 16 km
Fr, 23.10. 8:00 94% 22 km
Fr, 23.10. 2:00 89% 45 km
Do, 22.10. 20:00 75% 45 km
Do, 22.10. 14:00 67% 35 km
Do, 22.10. 8:00 82% 35 km
Ortszeit Relative Feuchte Sichtweite
Sa, 24.10. 6:00 95% 14 km
Sa, 24.10. 5:40 95% -
Sa, 24.10. 5:30 95% 17 km
Sa, 24.10. 5:20 95% -
Sa, 24.10. 5:10 94% -
Sa, 24.10. 5:00 94% 19 km
Sa, 24.10. 4:50 94% -
Sa, 24.10. 4:30 94% 20 km
Sa, 24.10. 4:00 96% 16 km
Sa, 24.10. 3:30 95% 21 km
Sa, 24.10. 3:00 95% 21 km
Sa, 24.10. 2:30 96% 21 km
Ortszeit Niederschlagsmenge Niederschlagsart
Sa, 24.10. 2:00 2 l/m2 in 6 Std. Regen
Fr, 23.10. 20:00 3 l/m2 in 12 Std. Regen
Fr, 23.10. 14:00 0.1 l/m2 in 6 Std. Regen
Fr, 23.10. 8:00 0.1 l/m2 in 12 Std. -
Fr, 23.10. 2:00 0.1 l/m2 in 6 Std. Regen
Do, 22.10. 20:00 0.0 l/m2 in 12 Std. -
Do, 22.10. 14:00 0.0 l/m2 in 6 Std. -
Do, 22.10. 8:00 0.0 l/m2 in 12 Std. -
Ortszeit Niederschlagsmenge Niederschlagsart
Sa, 24.10. 6:00 0.1 l/m2 in 1 Std. -
Sa, 24.10. 5:40 keine Meldung -
Sa, 24.10. 5:30 0.1 l/m2 in 1 Std. -
Sa, 24.10. 5:20 keine Meldung -
Sa, 24.10. 5:10 keine Meldung -
Sa, 24.10. 5:00 0.0 l/m2 in 1 Std. -
Sa, 24.10. 4:50 keine Meldung -
Sa, 24.10. 4:30 0.0 l/m2 in 1 Std. -
Sa, 24.10. 4:00 0.1 l/m2 in 1 Std. -
Sa, 24.10. 3:30 0.0 l/m2 in 1 Std. -
Sa, 24.10. 3:00 0.1 l/m2 in 1 Std. -
Sa, 24.10. 2:30 0.0 l/m2 in 1 Std. -
Ortszeit Stärke Spitze Richtung
km/h Bft. km/h Grad Sektor
Sa, 24.10. 2:00 18 3 25 240° SW
Fr, 23.10. 20:00 7 2 30 240° SW
Fr, 23.10. 14:00 17 3 28 220° SW
Fr, 23.10. 8:00 9 2 15 200° S
Fr, 23.10. 2:00 9 2 28 230° SW
Do, 22.10. 20:00 13 3 39 190° S
Do, 22.10. 14:00 18 3 40 200° S
Do, 22.10. 8:00 13 3 39 230° SW
Ortszeit Stärke Spitze Richtung
km/h Bft. km/h Grad Sektor
Sa, 24.10. 6:00 14 3 29 210° SW
Sa, 24.10. 5:40 14 3 - 220° SW
Sa, 24.10. 5:30 14 3 29 220° SW
Sa, 24.10. 5:20 14 3 - 220° SW
Sa, 24.10. 5:10 19 3 - 220° SW
Sa, 24.10. 5:00 17 3 24 220° SW
Sa, 24.10. 4:50 17 3 - 220° SW
Sa, 24.10. 4:30 13 3 20 220° SW
Sa, 24.10. 4:00 11 2 20 240° SW
Sa, 24.10. 3:30 13 3 20 240° SW
Sa, 24.10. 3:00 18 3 29 240° SW
Sa, 24.10. 2:30 18 3 29 240° SW
Ortszeit Untergrenze Bedeckung Gattung
total tief tief mittel hoch
Sa, 24.10. 2:00 - 0/8 0/8 - - -
Fr, 23.10. 20:00 1020 m 7/8 7/8 - - -
Fr, 23.10. 14:00 240 m 8/8 8/8 - - -
Fr, 23.10. 8:00 1080 m 7/8 7/8 - - -
Fr, 23.10. 2:00 810 m 3/8 1/8 - - -
Do, 22.10. 20:00 6300 m 8/8 8/8 - - -
Do, 22.10. 14:00 750 m 4/8 3/8 - - -
Do, 22.10. 8:00 6900 m 7/8 7/8 - - -
Ortszeit Bedeckungsgrad in Achtel und Wolkenuntergrenze
Sa, 24.10. 6:00 3(480m) 4(690m)
Sa, 24.10. 5:40 2(510m) 4(690m)
Sa, 24.10. 5:30 keine Wolken
Sa, 24.10. 5:20 keine Wolken
Sa, 24.10. 5:10 1(840m)
Sa, 24.10. 5:00 1(840m)
Sa, 24.10. 4:50 keine Wolken
Sa, 24.10. 4:30 2(4500m)
Sa, 24.10. 4:00 7(4500m) 8(6600m) 8(7500m)
Sa, 24.10. 3:30 1(600m) 8(4500m) 8(6000m)
Sa, 24.10. 3:00 1(540m) 3(4800m) 6(5100m)
Sa, 24.10. 2:30 keine Wolken
Ortszeit Luftdruck NN (hPa) Tendenz (hPa in 3 Std.)
Sa, 24.10. 2:00 1012 + 0,7
Fr, 23.10. 20:00 1011 + 0,8
Fr, 23.10. 14:00 1011 - 1,1
Fr, 23.10. 8:00 1012 - 0,4
Fr, 23.10. 2:00 1013 - 0,2
Do, 22.10. 20:00 1013 - 0,1
Do, 22.10. 14:00 1013 - 0,4
Do, 22.10. 8:00 1012 + 1,4
Ortszeit Luftdruck NN (hPa) Tendenz (hPa in 3 Std.)
Sa, 24.10. 6:00 1013 + 0,4
Sa, 24.10. 5:40 1013 keine Meldung
Sa, 24.10. 5:30 1013 + 0,4
Sa, 24.10. 5:20 1013 keine Meldung
Sa, 24.10. 5:10 1013 keine Meldung
Sa, 24.10. 5:00 1013 + 0,6
Sa, 24.10. 4:50 1013 keine Meldung
Sa, 24.10. 4:30 1013 + 0,5
Sa, 24.10. 4:00 1013 + 0,5
Sa, 24.10. 3:30 1013 + 0,6
Sa, 24.10. 3:00 1013 + 0,4
Sa, 24.10. 2:30 1012 + 0,5
Ortszeit Schneehöhe (cm)
Sa, 24.10. 2:00 0
Fr, 23.10. 20:00 0
Fr, 23.10. 14:00 0
Fr, 23.10. 8:00 0
Fr, 23.10. 2:00 0
Do, 22.10. 20:00 0
Do, 22.10. 14:00 0
Do, 22.10. 8:00 0
Ortszeit Schneehöhe (cm)
Sa, 24.10. 6:00 0
Sa, 24.10. 5:40 0
Sa, 24.10. 5:30 0
Sa, 24.10. 5:20 0
Sa, 24.10. 5:10 0
Sa, 24.10. 5:00 0
Sa, 24.10. 4:50 0
Sa, 24.10. 4:30 0
Sa, 24.10. 4:00 0
Sa, 24.10. 3:30 0
Sa, 24.10. 3:00 0
Sa, 24.10. 2:30 0
Link zu dieser Seite / Seite empfehlen

Das Wetter in ...